createdAt,value
2023-04-14T00:00:12.340Z,9.06
2023-04-14T00:01:15.730Z,9.14
2023-04-14T00:02:17.702Z,8.94
2023-04-14T00:03:20.242Z,9.04
2023-04-14T00:04:23.868Z,9.00
2023-04-14T00:05:32.183Z,8.93
2023-04-14T00:06:35.018Z,9.00
2023-04-14T00:07:36.958Z,9.01
2023-04-14T00:08:39.036Z,8.91
2023-04-14T00:09:40.891Z,8.99
2023-04-14T00:10:43.085Z,8.81
2023-04-14T00:11:45.052Z,9.01
2023-04-14T00:12:46.910Z,9.06
2023-04-14T00:13:48.776Z,8.95
2023-04-14T00:14:50.634Z,8.74
2023-04-14T00:15:52.833Z,8.83
2023-04-14T00:16:55.142Z,8.90
2023-04-14T00:17:57.148Z,8.86
2023-04-14T00:18:59.382Z,8.94
2023-04-14T00:20:01.937Z,8.84
2023-04-14T00:21:06.161Z,8.66
2023-04-14T00:22:08.065Z,8.85
2023-04-14T00:23:10.102Z,8.77
2023-04-14T00:24:12.018Z,8.75
2023-04-14T00:25:14.039Z,8.67
2023-04-14T00:26:17.019Z,8.80
2023-04-14T00:27:19.115Z,8.92
2023-04-14T00:28:21.064Z,8.59
2023-04-14T00:29:23.060Z,8.55
2023-04-14T00:30:25.155Z,8.61
2023-04-14T00:31:27.187Z,8.64
2023-04-14T00:32:29.213Z,8.58
2023-04-14T00:33:31.406Z,8.54
2023-04-14T00:34:35.125Z,8.56
2023-04-14T00:35:37.417Z,8.55
2023-04-14T00:36:39.400Z,8.56
2023-04-14T00:37:43.104Z,8.77
2023-04-14T00:38:45.157Z,8.66
2023-04-14T00:39:47.074Z,8.71
2023-04-14T00:40:49.146Z,8.76
2023-04-14T00:41:51.136Z,8.89
2023-04-14T00:42:53.207Z,8.87
2023-04-14T00:43:55.277Z,8.68
2023-04-14T00:44:57.160Z,8.85
2023-04-14T00:45:59.267Z,8.81
2023-04-14T00:47:03.865Z,8.73
2023-04-14T00:48:06.413Z,8.81
2023-04-14T00:49:09.003Z,8.81
2023-04-14T00:50:13.339Z,8.96
2023-04-14T00:51:16.009Z,8.97
2023-04-14T00:52:21.379Z,8.95
2023-04-14T00:53:23.398Z,9.07
2023-04-14T00:54:26.956Z,8.88
2023-04-14T00:55:29.796Z,8.87
2023-04-14T00:56:32.772Z,9.03
2023-04-14T00:57:37.529Z,9.01
2023-04-14T00:58:42.448Z,9.03
2023-04-14T00:59:44.389Z,9.01
2023-04-14T01:00:47.047Z,9.14
2023-04-14T01:01:48.977Z,9.16
2023-04-14T01:02:51.234Z,9.16
2023-04-14T01:03:54.260Z,9.18
2023-04-14T01:04:56.443Z,9.24
2023-04-14T01:05:58.738Z,9.29
2023-04-14T01:07:00.874Z,9.08
2023-04-14T01:08:04.425Z,9.09
2023-04-14T01:09:07.660Z,9.18
2023-04-14T01:10:10.781Z,9.16
2023-04-14T01:11:31.589Z,9.07
2023-04-14T01:13:03.187Z,9.00
2023-04-14T01:14:35.253Z,9.09
2023-04-14T01:15:49.186Z,9.17
2023-04-14T01:16:55.024Z,9.18
2023-04-14T01:18:03.552Z,9.10
2023-04-14T01:19:25.695Z,9.09
2023-04-14T01:20:34.884Z,9.21
2023-04-14T01:21:39.986Z,8.91
2023-04-14T01:22:55.152Z,8.86
2023-04-14T01:24:18.039Z,8.95
2023-04-14T01:25:33.054Z,8.96
2023-04-14T01:26:35.398Z,8.91
2023-04-14T01:27:56.503Z,8.97
2023-04-14T01:29:02.421Z,8.95
2023-04-14T01:32:03.935Z,9.00
2023-04-14T01:33:10.001Z,9.07
2023-04-14T01:34:22.737Z,8.97
2023-04-14T01:35:43.610Z,8.84
2023-04-14T01:36:49.487Z,8.95
2023-04-14T01:37:58.338Z,8.96
2023-04-14T01:39:04.057Z,9.00
2023-04-14T01:40:12.779Z,9.05
2023-04-14T01:41:17.769Z,9.10
2023-04-14T01:42:23.779Z,9.03
2023-04-14T01:43:30.075Z,9.03
2023-04-14T01:44:34.424Z,8.89
2023-04-14T01:45:40.921Z,8.88
2023-04-14T01:46:44.470Z,8.95
2023-04-14T01:47:47.451Z,8.99
2023-04-14T01:48:50.511Z,8.63
2023-04-14T01:49:53.619Z,8.83
2023-04-14T01:50:57.916Z,8.84
2023-04-14T01:52:03.390Z,8.72
2023-04-14T01:53:08.357Z,8.64
2023-04-14T01:54:12.589Z,8.63
2023-04-14T01:55:18.277Z,8.67
2023-04-14T01:56:21.805Z,8.45
2023-04-14T01:57:28.517Z,8.58
2023-04-14T01:58:31.766Z,8.37
2023-04-14T01:59:35.355Z,8.44
2023-04-14T02:00:40.319Z,8.63
2023-04-14T02:01:45.523Z,8.68
2023-04-14T02:02:50.246Z,8.64
2023-04-14T02:03:53.136Z,8.55
2023-04-14T02:04:56.343Z,8.54
2023-04-14T02:06:00.412Z,8.46
2023-04-14T02:07:05.136Z,8.49
2023-04-14T02:08:10.012Z,8.31
2023-04-14T02:09:13.211Z,8.28
2023-04-14T02:10:19.533Z,8.33
2023-04-14T02:11:23.219Z,8.35
2023-04-14T02:12:26.935Z,8.37
2023-04-14T02:13:31.070Z,8.47
2023-04-14T02:14:35.176Z,8.18
2023-04-14T02:15:37.089Z,8.25
2023-04-14T02:16:40.246Z,8.22
2023-04-14T02:17:46.914Z,8.28
2023-04-14T02:18:49.918Z,8.36
2023-04-14T02:19:54.329Z,8.42
2023-04-14T02:21:00.470Z,8.34
2023-04-14T02:22:03.764Z,8.25
2023-04-14T02:23:05.773Z,8.43
2023-04-14T02:24:09.137Z,8.46
2023-04-14T02:25:12.242Z,8.47
2023-04-14T02:26:18.467Z,8.26
2023-04-14T02:27:41.067Z,8.18
2023-04-14T02:30:19.699Z,8.36
2023-04-14T02:31:24.656Z,8.19
2023-04-14T02:32:30.548Z,8.29
2023-04-14T02:33:35.264Z,8.35
2023-04-14T02:35:13.526Z,8.31
2023-04-14T02:36:19.394Z,8.27
2023-04-14T02:37:25.251Z,8.41
2023-04-14T02:38:37.307Z,8.36
2023-04-14T02:39:45.958Z,8.47
2023-04-14T02:40:49.603Z,8.34
2023-04-14T02:41:55.244Z,8.23
2023-04-14T02:43:00.678Z,8.19
2023-04-14T02:44:12.133Z,8.27
2023-04-14T02:45:21.434Z,8.22
2023-04-14T02:46:27.020Z,8.26
2023-04-14T02:47:33.240Z,8.33
2023-04-14T02:48:37.435Z,8.05
2023-04-14T02:49:45.220Z,8.24
2023-04-14T02:50:51.492Z,8.29
2023-04-14T02:51:55.582Z,8.11
2023-04-14T02:53:00.279Z,8.28
2023-04-14T02:54:04.582Z,8.26
2023-04-14T02:55:09.836Z,8.32
2023-04-14T02:56:14.382Z,8.32
2023-04-14T02:57:17.818Z,8.28
2023-04-14T02:58:20.693Z,8.17
2023-04-14T02:59:25.168Z,8.30
2023-04-14T03:00:29.056Z,8.24
2023-04-14T03:01:32.126Z,8.30
2023-04-14T03:02:35.771Z,8.09
2023-04-14T03:03:38.480Z,8.10
2023-04-14T03:04:41.722Z,8.16
2023-04-14T03:05:46.526Z,8.14
2023-04-14T03:06:50.719Z,8.13
2023-04-14T03:07:54.900Z,8.17
2023-04-14T03:08:59.664Z,8.24
2023-04-14T03:10:02.722Z,8.27
2023-04-14T03:11:06.465Z,8.19
2023-04-14T03:12:12.650Z,8.14
2023-04-14T03:13:20.525Z,8.23
2023-04-14T03:14:25.513Z,8.14
2023-04-14T03:15:29.892Z,8.18
2023-04-14T03:16:34.133Z,8.30
2023-04-14T03:17:37.398Z,8.16
2023-04-14T03:18:41.796Z,8.04
2023-04-14T03:19:45.929Z,8.22
2023-04-14T03:20:48.430Z,8.11
2023-04-14T03:21:51.972Z,8.28
2023-04-14T03:22:54.276Z,8.10
2023-04-14T03:23:58.155Z,8.16
2023-04-14T03:25:00.164Z,8.26
2023-04-14T03:26:04.487Z,8.18
2023-04-14T03:27:10.671Z,8.28
2023-04-14T03:28:14.788Z,8.12
2023-04-14T03:29:19.773Z,8.26
2023-04-14T03:30:24.946Z,8.25
2023-04-14T03:31:33.005Z,8.32
2023-04-14T03:32:38.829Z,8.16
2023-04-14T03:33:43.844Z,8.30
2023-04-14T03:34:49.811Z,8.41
2023-04-14T03:35:53.644Z,8.19
2023-04-14T03:36:57.780Z,8.35
2023-04-14T03:38:03.839Z,8.07
2023-04-14T03:39:08.325Z,8.26
2023-04-14T03:40:14.764Z,8.16
2023-04-14T03:41:19.318Z,8.08
2023-04-14T03:42:23.664Z,8.15
2023-04-14T03:43:27.646Z,8.20
2023-04-14T03:44:32.270Z,8.30
2023-04-14T03:45:36.478Z,8.42
2023-04-14T03:46:39.150Z,8.19
2023-04-14T03:47:41.633Z,8.09
2023-04-14T03:48:45.739Z,8.05
2023-04-14T03:49:49.956Z,8.29
2023-04-14T03:50:54.289Z,8.23
2023-04-14T03:51:59.986Z,8.34
2023-04-14T03:53:04.072Z,8.32
2023-04-14T03:54:07.006Z,8.30
2023-04-14T03:55:11.452Z,8.45
2023-04-14T03:56:17.048Z,8.36
2023-04-14T03:57:20.049Z,8.45
2023-04-14T03:58:23.044Z,8.27
2023-04-14T03:59:27.423Z,8.19
2023-04-14T04:00:30.296Z,8.38
2023-04-14T04:01:32.995Z,8.44
2023-04-14T04:02:37.208Z,8.45
2023-04-14T04:03:41.435Z,8.51
2023-04-14T04:04:44.188Z,8.36
2023-04-14T04:05:47.381Z,8.34
2023-04-14T04:06:50.735Z,8.32
2023-04-14T04:07:55.085Z,8.44
2023-04-14T04:09:00.140Z,8.43
2023-04-14T04:10:06.084Z,8.41
2023-04-14T04:11:09.190Z,8.44
2023-04-14T04:12:13.534Z,8.45
2023-04-14T04:13:20.050Z,8.47
2023-04-14T04:14:24.272Z,8.44
2023-04-14T04:15:28.517Z,8.54
2023-04-14T04:16:33.931Z,8.48
2023-04-14T04:17:37.930Z,8.38
2023-04-14T04:18:41.909Z,8.38
2023-04-14T04:19:46.055Z,8.47
2023-04-14T04:20:49.316Z,8.51
2023-04-14T04:21:54.551Z,8.44
2023-04-14T04:22:59.234Z,8.30
2023-04-14T04:24:04.023Z,8.47
2023-04-14T04:25:09.106Z,8.51
2023-04-14T04:26:12.974Z,8.58
2023-04-14T04:27:27.228Z,8.63
2023-04-14T04:28:21.948Z,8.61
2023-04-14T04:29:25.561Z,8.62
2023-04-14T04:30:31.942Z,8.67
2023-04-14T04:31:35.976Z,8.54
2023-04-14T04:32:41.298Z,8.66
2023-04-14T04:33:44.915Z,8.70
2023-04-14T04:34:49.744Z,8.64
2023-04-14T04:35:54.701Z,8.64
2023-04-14T04:36:59.692Z,8.56
2023-04-14T04:38:01.644Z,8.62
2023-04-14T04:39:03.772Z,8.66
2023-04-14T04:40:07.756Z,8.55
2023-04-14T04:42:40.562Z,8.69
2023-04-14T04:43:42.584Z,8.51
2023-04-14T04:44:44.486Z,8.53
2023-04-14T04:46:02.781Z,8.63
2023-04-14T04:47:05.472Z,8.64
2023-04-14T04:48:07.520Z,8.81
2023-04-14T04:49:09.639Z,8.72
2023-04-14T04:50:11.743Z,8.81
2023-04-14T04:51:14.323Z,8.73
2023-04-14T04:52:16.261Z,8.75
2023-04-14T04:53:18.537Z,8.79
2023-04-14T04:54:20.537Z,8.77
2023-04-14T04:55:22.608Z,8.80
2023-04-14T04:56:24.858Z,8.80
2023-04-14T04:57:27.619Z,8.82
2023-04-14T04:58:29.484Z,8.86
2023-04-14T04:59:31.678Z,8.87
2023-04-14T05:00:33.750Z,8.83
2023-04-14T05:01:35.763Z,8.82
2023-04-14T05:02:37.805Z,8.79
2023-04-14T05:03:40.354Z,8.83
2023-04-14T05:04:42.514Z,8.59
2023-04-14T05:05:44.568Z,8.59
2023-04-14T05:06:46.518Z,8.75
2023-04-14T05:07:48.422Z,8.74
2023-04-14T05:08:51.644Z,8.69
2023-04-14T05:09:53.644Z,8.68
2023-04-14T05:10:55.625Z,8.78
2023-04-14T05:11:57.648Z,8.92
2023-04-14T05:12:59.519Z,8.86
2023-04-14T05:14:02.650Z,8.88
2023-04-14T05:15:05.842Z,8.89
2023-04-14T05:16:10.254Z,8.89
2023-04-14T05:17:12.288Z,8.96
2023-04-14T05:18:14.276Z,9.01
2023-04-14T05:19:16.161Z,9.01
2023-04-14T05:20:20.132Z,8.96
2023-04-14T05:21:23.103Z,8.82
2023-04-14T05:22:25.041Z,8.90
2023-04-14T05:23:26.944Z,8.81
2023-04-14T05:24:29.019Z,8.87
2023-04-14T05:25:31.816Z,8.85
2023-04-14T05:26:57.528Z,8.90
2023-04-14T05:27:38.804Z,8.99
2023-04-14T05:28:41.869Z,8.86
2023-04-14T05:29:43.865Z,8.93
2023-04-14T05:30:46.041Z,8.95
2023-04-14T05:31:48.534Z,8.84
2023-04-14T05:32:50.616Z,8.87
2023-04-14T05:33:52.728Z,8.93
2023-04-14T05:34:56.054Z,8.82
2023-04-14T05:35:58.081Z,8.87
2023-04-14T05:37:01.472Z,8.86
2023-04-14T05:38:03.371Z,8.92
2023-04-14T05:39:06.512Z,8.93
2023-04-14T05:40:10.437Z,8.83
2023-04-14T05:41:12.475Z,8.68
2023-04-14T05:42:14.391Z,8.68
2023-04-14T05:43:16.326Z,8.82
2023-04-14T05:44:18.221Z,8.74
2023-04-14T05:45:20.076Z,8.82
2023-04-14T05:46:22.162Z,8.87
2023-04-14T05:47:26.517Z,8.74
2023-04-14T05:48:28.514Z,8.87
2023-04-14T05:49:30.420Z,8.62
2023-04-14T05:50:34.498Z,8.73
2023-04-14T05:51:36.440Z,8.85
2023-04-14T05:52:38.460Z,8.85
2023-04-14T05:53:40.815Z,8.85
2023-04-14T05:54:43.314Z,8.84
2023-04-14T05:55:45.522Z,8.80
2023-04-14T05:56:47.727Z,8.88
2023-04-14T05:57:49.746Z,8.75
2023-04-14T05:58:51.713Z,8.86
2023-04-14T05:59:53.639Z,8.87
2023-04-14T06:00:55.724Z,8.93
2023-04-14T06:01:58.682Z,8.90
2023-04-14T06:03:01.780Z,8.69
2023-04-14T06:04:04.675Z,8.63
2023-04-14T06:05:08.499Z,8.65
2023-04-14T06:06:11.575Z,8.64
2023-04-14T06:07:14.496Z,8.79
2023-04-14T06:08:17.987Z,8.84
2023-04-14T06:09:19.978Z,8.71
2023-04-14T06:10:22.160Z,8.71
2023-04-14T06:11:24.163Z,8.86
2023-04-14T06:12:26.116Z,8.58
2023-04-14T06:13:31.106Z,8.67
2023-04-14T06:14:32.125Z,8.59
2023-04-14T06:15:34.640Z,8.74
2023-04-14T06:16:36.913Z,8.63
2023-04-14T06:17:39.046Z,8.71
2023-04-14T06:18:41.168Z,8.65
2023-04-14T06:19:43.150Z,8.71
2023-04-14T06:20:45.538Z,8.79
2023-04-14T06:21:47.442Z,8.63
2023-04-14T06:22:49.409Z,8.54
2023-04-14T06:23:51.464Z,8.65
2023-04-14T06:24:53.509Z,8.52
2023-04-14T06:25:55.492Z,8.76
2023-04-14T06:26:57.750Z,8.86
2023-04-14T06:27:59.889Z,8.81
2023-04-14T06:29:02.135Z,8.78
2023-04-14T06:30:06.333Z,8.82
2023-04-14T06:31:08.565Z,8.90
2023-04-14T06:32:11.111Z,8.95
2023-04-14T06:33:13.314Z,9.00
2023-04-14T06:34:16.114Z,8.90
2023-04-14T06:35:30.092Z,8.85
2023-04-14T06:36:22.048Z,8.92
2023-04-14T06:37:24.068Z,8.99
2023-04-14T06:38:29.346Z,9.02
2023-04-14T06:39:31.938Z,8.84
2023-04-14T06:40:33.996Z,8.89
2023-04-14T06:41:35.982Z,8.87
2023-04-14T06:42:38.080Z,8.77
2023-04-14T06:43:40.577Z,8.92
2023-04-14T06:44:42.479Z,9.05
2023-04-14T06:45:44.506Z,8.91
2023-04-14T06:46:46.573Z,8.80
2023-04-14T06:47:48.636Z,8.77
2023-04-14T06:48:50.583Z,8.78
2023-04-14T06:49:52.444Z,8.84
2023-04-14T06:50:55.354Z,8.79
2023-04-14T06:51:58.531Z,8.84
2023-04-14T06:53:00.632Z,8.90
2023-04-14T06:54:02.740Z,8.82
2023-04-14T06:55:05.553Z,8.70
2023-04-14T06:56:07.968Z,8.65
2023-04-14T06:57:10.184Z,8.68
2023-04-14T06:58:12.107Z,8.69
2023-04-14T06:59:14.353Z,8.78
2023-04-14T07:00:17.758Z,8.81
2023-04-14T07:01:19.819Z,8.91
2023-04-14T07:02:21.982Z,8.94
2023-04-14T07:03:26.299Z,8.84
2023-04-14T07:04:28.337Z,8.81
2023-04-14T07:05:30.492Z,9.04
2023-04-14T07:06:32.803Z,8.86
2023-04-14T07:07:37.137Z,8.93
2023-04-14T07:08:40.091Z,8.96
2023-04-14T07:09:42.314Z,9.11
2023-04-14T07:10:44.805Z,9.04
2023-04-14T07:11:48.208Z,9.10
2023-04-14T07:12:50.470Z,9.20
2023-04-14T07:13:52.346Z,9.05
2023-04-14T07:14:54.231Z,8.89
2023-04-14T07:15:56.389Z,8.92
2023-04-14T07:16:58.546Z,8.92
2023-04-14T07:18:00.702Z,8.97
2023-04-14T07:19:02.674Z,8.99
2023-04-14T07:20:06.910Z,9.07
2023-04-14T07:21:08.915Z,9.02
2023-04-14T07:22:10.972Z,9.12
2023-04-14T07:23:12.838Z,9.18
2023-04-14T07:24:15.628Z,9.14
2023-04-14T07:25:18.314Z,8.98
2023-04-14T07:26:20.590Z,9.15
2023-04-14T07:27:22.812Z,8.98
2023-04-14T07:28:27.450Z,8.97
2023-04-14T07:29:29.422Z,9.19
2023-04-14T07:30:32.704Z,8.98
2023-04-14T07:31:34.833Z,9.04
2023-04-14T07:32:37.710Z,9.08
2023-04-14T07:33:40.277Z,9.15
2023-04-14T07:34:42.252Z,9.17
2023-04-14T07:36:56.174Z,9.26
2023-04-14T07:37:58.032Z,9.23
2023-04-14T07:39:00.431Z,9.38
2023-04-14T07:40:02.751Z,9.45
2023-04-14T07:41:06.574Z,9.53
2023-04-14T07:42:08.801Z,9.45
2023-04-14T07:43:11.216Z,9.70
2023-04-14T07:44:13.088Z,9.84
2023-04-14T07:45:15.256Z,9.82
2023-04-14T07:46:17.873Z,9.78
2023-04-14T07:47:19.939Z,9.87
2023-04-14T07:48:21.997Z,9.68
2023-04-14T07:49:23.986Z,9.71
2023-04-14T07:50:26.439Z,9.77
2023-04-14T07:51:28.952Z,9.91
2023-04-14T07:52:30.845Z,9.74
2023-04-14T07:53:33.630Z,9.92
2023-04-14T07:54:35.989Z,10.15
2023-04-14T07:55:38.004Z,10.05
2023-04-14T07:56:40.438Z,10.20
2023-04-14T07:57:42.794Z,10.02
2023-04-14T07:58:44.767Z,9.81
2023-04-14T07:59:46.880Z,10.11
2023-04-14T08:00:49.198Z,10.00
2023-04-14T08:01:51.250Z,10.13
2023-04-14T08:02:54.357Z,10.04
2023-04-14T08:03:56.645Z,10.20
2023-04-14T08:04:58.798Z,10.25
2023-04-14T08:06:00.864Z,10.36
2023-04-14T08:07:02.893Z,10.34
2023-04-14T08:08:05.187Z,10.25
2023-04-14T08:09:07.109Z,10.24
2023-04-14T08:10:09.280Z,10.26
2023-04-14T08:11:11.353Z,10.19
2023-04-14T08:12:13.229Z,10.27
2023-04-14T08:13:15.127Z,10.34
2023-04-14T08:14:16.989Z,10.46
2023-04-14T08:15:20.290Z,10.46
2023-04-14T08:16:22.418Z,10.46
2023-04-14T08:17:24.798Z,10.51
2023-04-14T08:18:27.878Z,10.13
2023-04-14T08:19:29.749Z,9.97
2023-04-14T08:20:34.163Z,10.03
2023-04-14T08:21:36.182Z,10.04
2023-04-14T08:22:38.855Z,10.12
2023-04-14T08:23:40.722Z,10.20
2023-04-14T08:24:42.609Z,9.98
2023-04-14T08:25:44.561Z,10.16
2023-04-14T08:26:47.054Z,10.16
2023-04-14T08:27:49.073Z,10.14
2023-04-14T08:28:51.026Z,10.04
2023-04-14T08:29:53.274Z,10.07
2023-04-14T08:30:55.884Z,10.25
2023-04-14T08:31:57.822Z,10.33
2023-04-14T08:33:00.203Z,10.35
2023-04-14T08:34:02.622Z,10.39
2023-04-14T08:35:38.891Z,10.38
2023-04-14T08:36:10.353Z,10.44
2023-04-14T08:37:12.271Z,10.37
2023-04-14T08:38:14.872Z,10.35
2023-04-14T08:39:16.764Z,10.42
2023-04-14T08:40:21.286Z,10.48
2023-04-14T08:41:24.384Z,10.53
2023-04-14T08:42:26.596Z,10.46
2023-04-14T08:43:28.873Z,10.32
2023-04-14T08:44:31.031Z,10.47
2023-04-14T08:45:33.971Z,10.31
2023-04-14T08:46:36.839Z,10.39
2023-04-14T08:47:39.813Z,10.43
2023-04-14T08:48:45.583Z,10.48
2023-04-14T08:49:54.265Z,10.57
2023-04-14T08:51:11.870Z,10.50
2023-04-14T08:52:16.375Z,10.65
2023-04-14T08:53:21.646Z,10.64
2023-04-14T08:54:24.991Z,10.70
2023-04-14T08:55:28.723Z,10.62
2023-04-14T08:56:35.666Z,10.65
2023-04-14T08:57:38.222Z,10.70
2023-04-14T08:58:40.441Z,10.73
2023-04-14T09:00:58.801Z,10.67
2023-04-14T09:02:03.741Z,10.51
2023-04-14T09:03:07.106Z,10.75
2023-04-14T09:04:10.306Z,10.69
2023-04-14T09:05:13.071Z,10.70
2023-04-14T09:06:16.324Z,10.74
2023-04-14T09:07:19.877Z,10.78
2023-04-14T09:08:21.876Z,10.75
2023-04-14T09:09:24.642Z,10.80
2023-04-14T09:10:27.680Z,10.54
2023-04-14T09:11:29.825Z,10.71
2023-04-14T09:12:33.122Z,10.66
2023-04-14T09:13:36.061Z,10.61
2023-04-14T09:14:40.196Z,10.72
2023-04-14T09:15:42.937Z,10.73
2023-04-14T09:16:45.270Z,10.68
2023-04-14T09:17:47.293Z,10.85
2023-04-14T09:18:51.721Z,10.91
2023-04-14T09:20:35.433Z,10.39
2023-04-14T09:21:29.771Z,10.51
2023-04-14T09:22:02.743Z,10.58
2023-04-14T09:23:06.881Z,10.73
2023-04-14T09:24:12.008Z,10.76
2023-04-14T09:25:18.771Z,10.95
2023-04-14T09:26:20.790Z,11.05
2023-04-14T09:27:22.641Z,10.94
2023-04-14T09:28:24.514Z,11.16
2023-04-14T09:29:27.274Z,11.06
2023-04-14T09:30:31.357Z,11.12
2023-04-14T09:31:33.740Z,11.11
2023-04-14T09:32:36.859Z,11.13
2023-04-14T09:33:41.683Z,11.20
2023-04-14T09:34:50.740Z,11.22
2023-04-14T09:35:52.750Z,11.43
2023-04-14T09:37:04.808Z,11.42
2023-04-14T09:38:06.860Z,11.46
2023-04-14T09:39:16.391Z,11.59
2023-04-14T09:40:30.344Z,11.50
2023-04-14T09:41:32.574Z,11.64
2023-04-14T09:42:41.090Z,11.60
2023-04-14T09:43:43.718Z,11.72
2023-04-14T09:44:53.544Z,11.76
2023-04-14T09:45:58.695Z,11.77
2023-04-14T09:47:03.252Z,11.59
2023-04-14T09:48:06.980Z,11.58
2023-04-14T09:49:09.000Z,11.73
2023-04-14T09:50:12.149Z,11.58
2023-04-14T09:51:14.170Z,11.73
2023-04-14T09:52:16.080Z,11.87
2023-04-14T09:53:26.703Z,11.81
2023-04-14T09:54:28.660Z,11.77
2023-04-14T09:55:30.517Z,11.72
2023-04-14T09:56:32.689Z,11.74
2023-04-14T09:57:34.862Z,11.73
2023-04-14T09:58:42.443Z,11.76
2023-04-14T09:59:45.912Z,11.74
2023-04-14T10:00:50.229Z,11.72
2023-04-14T10:01:52.360Z,11.64
2023-04-14T10:02:56.580Z,11.63
2023-04-14T10:04:01.433Z,11.40
2023-04-14T10:05:06.026Z,11.50
2023-04-14T10:06:14.708Z,11.46
2023-04-14T10:07:18.498Z,11.62
2023-04-14T10:08:21.642Z,11.59
2023-04-14T10:09:25.305Z,11.55
2023-04-14T10:10:27.443Z,11.50
2023-04-14T10:11:31.407Z,11.44
2023-04-14T10:12:33.578Z,11.36
2023-04-14T10:13:35.549Z,11.44
2023-04-14T10:14:38.136Z,11.38
2023-04-14T10:15:41.279Z,11.28
2023-04-14T10:16:44.107Z,11.41
2023-04-14T10:17:46.777Z,11.45
2023-04-14T10:18:49.625Z,11.39
2023-04-14T10:19:51.721Z,11.27
2023-04-14T10:20:55.183Z,11.29
2023-04-14T10:21:57.088Z,11.25
2023-04-14T10:22:59.856Z,11.38
2023-04-14T10:24:02.621Z,11.42
2023-04-14T10:25:06.155Z,11.26
2023-04-14T10:26:10.551Z,11.27
2023-04-14T10:27:13.126Z,11.43
2023-04-14T10:28:16.312Z,11.35
2023-04-14T10:29:20.230Z,11.34
2023-04-14T10:30:22.578Z,11.16
2023-04-14T10:31:27.898Z,11.22
2023-04-14T10:32:34.157Z,11.19
2023-04-14T10:33:36.802Z,11.15
2023-04-14T10:34:44.300Z,11.22
2023-04-14T10:35:50.396Z,11.25
2023-04-14T10:36:52.590Z,11.25
2023-04-14T10:37:54.581Z,11.23
2023-04-14T10:39:01.717Z,11.03
2023-04-14T10:40:07.453Z,11.08
2023-04-14T10:41:11.374Z,11.08
2023-04-14T10:42:13.371Z,11.27
2023-04-14T10:43:15.354Z,11.21
2023-04-14T10:44:31.762Z,11.32
2023-04-14T10:45:33.960Z,11.32
2023-04-14T10:46:43.212Z,11.32
2023-04-14T10:47:46.062Z,11.15
2023-04-14T10:48:50.037Z,11.22
2023-04-14T10:49:55.491Z,11.19
2023-04-14T10:51:01.101Z,11.21
2023-04-14T10:52:15.866Z,11.03
2023-04-14T10:53:19.518Z,10.96
2023-04-14T10:54:21.519Z,10.82
2023-04-14T10:55:26.705Z,10.94
2023-04-14T10:56:29.907Z,10.88
2023-04-14T10:57:38.812Z,10.93
2023-04-14T10:58:43.459Z,10.94
2023-04-14T10:59:46.468Z,10.90
2023-04-14T11:00:48.512Z,10.84
2023-04-14T11:01:53.567Z,10.96
2023-04-14T11:03:04.155Z,11.00
2023-04-14T11:04:17.612Z,11.05
2023-04-14T11:05:20.764Z,11.10
2023-04-14T11:06:46.539Z,11.13
2023-04-14T11:07:50.963Z,11.08
2023-04-14T11:08:54.186Z,11.06
2023-04-14T11:10:18.330Z,11.00
2023-04-14T11:11:24.263Z,11.08
2023-04-14T11:12:28.241Z,11.10
2023-04-14T11:13:32.855Z,11.10
2023-04-14T11:14:35.192Z,11.06
2023-04-14T11:15:51.530Z,11.05
2023-04-14T11:17:04.509Z,11.05
2023-04-14T11:18:15.421Z,11.16
2023-04-14T11:19:17.540Z,11.23
2023-04-14T11:20:21.970Z,11.14
2023-04-14T11:21:24.085Z,11.12
2023-04-14T11:22:46.371Z,11.11
2023-04-14T11:23:48.592Z,11.19
2023-04-14T11:24:50.511Z,11.15
2023-04-14T11:25:52.987Z,11.25
2023-04-14T11:26:56.233Z,11.38
2023-04-14T11:28:02.756Z,11.29
2023-04-14T11:29:07.768Z,11.43
2023-04-14T11:30:18.894Z,11.53
2023-04-14T11:31:24.704Z,11.52
2023-04-14T11:32:26.884Z,11.59
2023-04-14T11:33:35.125Z,11.64
2023-04-14T11:34:37.041Z,11.68
2023-04-14T11:35:41.279Z,11.45
2023-04-14T11:36:43.365Z,11.56
2023-04-14T11:37:46.247Z,11.56
2023-04-14T11:38:52.086Z,11.63
2023-04-14T11:39:54.190Z,11.53
2023-04-14T11:40:56.830Z,11.58
2023-04-14T11:42:00.092Z,11.33
2023-04-14T11:43:02.128Z,11.35
2023-04-14T11:44:04.234Z,11.53
2023-04-14T11:45:07.127Z,11.54
2023-04-14T11:46:09.427Z,11.54
2023-04-14T11:47:11.398Z,11.37
2023-04-14T11:48:16.179Z,11.37
2023-04-14T11:49:18.439Z,11.51
2023-04-14T11:50:21.433Z,11.41
2023-04-14T11:51:32.865Z,11.43
2023-04-14T11:52:35.102Z,11.47
2023-04-14T11:53:37.088Z,11.64
2023-04-14T11:54:39.587Z,11.43
2023-04-14T11:56:54.475Z,11.80
2023-04-14T11:57:56.527Z,11.81
2023-04-14T11:59:01.213Z,11.73
2023-04-14T12:00:04.965Z,11.65
2023-04-14T12:01:08.448Z,11.69
2023-04-14T12:02:16.777Z,11.68
2023-04-14T12:03:20.086Z,11.55
2023-04-14T12:04:22.443Z,11.53
2023-04-14T12:05:25.023Z,11.58
2023-04-14T12:06:27.543Z,11.50
2023-04-14T12:07:29.498Z,11.57
2023-04-14T12:08:33.370Z,11.49
2023-04-14T12:09:39.298Z,11.53
2023-04-14T12:10:41.908Z,11.53
2023-04-14T12:11:55.297Z,11.43
2023-04-14T12:13:10.156Z,11.47
2023-04-14T12:14:12.628Z,11.45
2023-04-14T12:15:14.992Z,11.46
2023-04-14T12:16:18.158Z,11.36
2023-04-14T12:17:21.547Z,11.24
2023-04-14T12:18:24.072Z,11.24
2023-04-14T12:19:25.997Z,11.15
2023-04-14T12:20:29.360Z,11.02
2023-04-14T12:21:31.694Z,11.05
2023-04-14T12:22:33.646Z,11.12
2023-04-14T12:23:37.594Z,11.04
2023-04-14T12:24:43.054Z,11.11
2023-04-14T12:25:47.256Z,11.16
2023-04-14T12:26:49.341Z,11.15
2023-04-14T12:27:51.425Z,11.09
2023-04-14T12:28:56.958Z,11.05
2023-04-14T12:29:58.898Z,10.94
2023-04-14T12:31:02.968Z,10.99
2023-04-14T12:32:11.941Z,10.84
2023-04-14T12:33:13.965Z,11.07
2023-04-14T12:34:17.838Z,11.01
2023-04-14T12:35:23.154Z,11.09
2023-04-14T12:36:29.780Z,10.99
2023-04-14T12:37:29.085Z,10.98
2023-04-14T12:38:31.560Z,10.91
2023-04-14T12:39:51.333Z,10.80
2023-04-14T12:40:56.115Z,10.81
2023-04-14T12:41:58.188Z,10.98
2023-04-14T12:43:02.082Z,10.80
2023-04-14T12:44:13.798Z,10.81
2023-04-14T12:45:16.339Z,11.00
2023-04-14T12:46:23.376Z,10.97
2023-04-14T12:47:26.988Z,11.04
2023-04-14T12:48:40.312Z,11.11
2023-04-14T12:49:42.230Z,11.05
2023-04-14T12:50:45.029Z,10.91
2023-04-14T12:51:46.914Z,10.97
2023-04-14T12:52:48.878Z,11.05
2023-04-14T12:53:50.847Z,11.22
2023-04-14T12:54:54.092Z,11.07
2023-04-14T12:56:08.037Z,11.09
2023-04-14T12:57:10.029Z,11.16
2023-04-14T12:58:11.906Z,11.16
2023-04-14T12:59:13.774Z,11.19
2023-04-14T13:00:16.638Z,10.96
2023-04-14T13:01:20.217Z,11.18
2023-04-14T13:02:22.992Z,11.20
2023-04-14T13:03:27.470Z,11.19
2023-04-14T13:04:29.827Z,11.13
2023-04-14T13:05:31.927Z,11.11
2023-04-14T13:06:34.139Z,11.00
2023-04-14T13:07:36.960Z,11.07
2023-04-14T13:08:44.498Z,11.11
2023-04-14T13:09:46.620Z,11.19
2023-04-14T13:10:48.725Z,11.13
2023-04-14T13:11:50.672Z,11.14
2023-04-14T13:12:53.355Z,11.16
2023-04-14T13:13:55.638Z,11.27
2023-04-14T13:14:57.739Z,11.15
2023-04-14T13:16:21.862Z,11.13
2023-04-14T13:17:03.573Z,11.28
2023-04-14T13:18:05.639Z,11.46
2023-04-14T13:19:07.669Z,11.23
2023-04-14T13:20:11.309Z,11.19
2023-04-14T13:21:13.671Z,11.21
2023-04-14T13:22:15.915Z,11.24
2023-04-14T13:23:17.985Z,11.28
2023-04-14T13:24:19.860Z,11.30
2023-04-14T13:25:21.905Z,11.33
2023-04-14T13:26:24.121Z,11.47
2023-04-14T13:27:27.235Z,11.43
2023-04-14T13:28:29.209Z,11.42
2023-04-14T13:29:32.303Z,11.20
2023-04-14T13:30:34.279Z,11.27
2023-04-14T13:31:36.253Z,11.24
2023-04-14T13:32:38.308Z,11.22
2023-04-14T13:33:40.249Z,11.21
2023-04-14T13:34:42.537Z,11.29
2023-04-14T13:35:44.732Z,11.41
2023-04-14T13:36:46.807Z,11.29
2023-04-14T13:37:48.770Z,11.27
2023-04-14T13:38:51.002Z,11.20
2023-04-14T13:39:52.998Z,11.35
2023-04-14T13:40:55.190Z,11.27
2023-04-14T13:41:57.156Z,11.24
2023-04-14T13:42:59.117Z,11.40
2023-04-14T13:44:02.283Z,11.15
2023-04-14T13:45:05.530Z,11.23
2023-04-14T13:46:08.943Z,11.13
2023-04-14T13:47:11.031Z,11.34
2023-04-14T13:48:15.140Z,11.19
2023-04-14T13:49:17.139Z,11.27
2023-04-14T13:50:20.465Z,11.17
2023-04-14T13:51:22.492Z,11.27
2023-04-14T13:52:24.402Z,11.27
2023-04-14T13:53:26.392Z,11.13
2023-04-14T13:54:28.442Z,11.09
2023-04-14T13:55:30.675Z,11.21
2023-04-14T13:56:32.657Z,11.10
2023-04-14T13:57:35.036Z,11.12
2023-04-14T13:58:36.971Z,11.17
2023-04-14T13:59:38.976Z,11.19
2023-04-14T14:00:41.253Z,11.01
2023-04-14T14:01:43.245Z,11.03
2023-04-14T14:02:45.449Z,11.02
2023-04-14T14:03:47.817Z,11.14
2023-04-14T14:04:50.024Z,11.02
2023-04-14T14:05:52.016Z,11.04
2023-04-14T14:06:54.082Z,11.01